Time;durP1;ratioP1;P1;durP2;ratioP2;P2;SDS_P1;SDS_P2;PMS_P1;PMS_P2;Temp;Humidity;BMP_temperature;BMP_pressure;BME280_temperature;BME280_humidity;BME280_pressure;Samples;Min_cycle;Max_cycle;Signal;HPM_P1;HPM_P2
2023/09/10 03:30:46;;;;;;;3.42;2.10;;;;;;;10.59;83.22;100302.38;9930035;29;20534;-78
2023/09/10 03:35:46;;;;;;;5.28;2.85;;;;;;;10.92;83.09;100353.66;9930566;29;20062;-80
2023/09/10 03:40:47;;;;;;;4.32;1.92;;;;;;;10.89;83.43;100344.19;9947289;29;20070;-80
2023/09/10 03:45:48;;;;;;;5.45;1.80;;;;;;;10.95;83.14;100354.16;9921511;29;20095;-80
2023/09/10 03:50:49;;;;;;;44.72;4.00;;;;;;;11.09;83.52;100355.25;9947232;29;20058;-81
2023/09/10 03:55:50;;;;;;;5.20;1.52;;;;;;;11.27;82.88;100303.66;9954832;29;20096;-81
2023/09/10 04:00:50;;;;;;;2.90;1.38;;;;;;;12.51;80.57;100355.94;9909190;29;20107;-82
2023/09/10 04:05:52;;;;;;;5.20;1.73;;;;;;;13.29;78.18;100276.47;9916160;29;20076;-82
2023/09/10 04:10:53;;;;;;;2.63;1.50;;;;;;;13.66;77.51;100342.97;9945743;29;20047;-80
2023/09/10 04:15:54;;;;;;;8.77;1.63;;;;;;;12.93;78.47;100342.03;9945970;29;20077;-81
2023/09/10 04:20:54;;;;;;;11.68;1.60;;;;;;;12.70;78.01;100334.09;9945938;29;20046;-79
2023/09/10 04:25:55;;;;;;;4.75;1.45;;;;;;;12.75;77.05;100291.75;9944733;29;20115;-80
2023/09/10 04:30:56;;;;;;;4.28;1.20;;;;;;;13.26;76.23;100332.88;9945130;29;20051;-80
2023/09/10 04:35:57;;;;;;;3.75;1.15;;;;;;;14.13;73.57;100322.94;9945584;29;20047;-79
2023/09/10 04:40:57;;;;;;;10.13;1.42;;;;;;;14.40;71.68;100325.84;9945664;29;20047;-81
2023/09/10 04:45:58;;;;;;;2.40;0.90;;;;;;;13.63;71.75;100267.81;9944438;29;20050;-80
2023/09/10 04:50:59;;;;;;;14.43;1.40;;;;;;;13.82;72.35;100317.91;9943947;29;20046;-80
2023/09/10 04:56:01;;;;;;;1.85;1.00;;;;;;;13.96;71.91;100350.91;9945065;29;20042;-80
2023/09/10 05:01:01;;;;;;;6.15;1.38;;;;;;;13.74;72.49;100328.72;9944453;29;20133;-78
2023/09/10 05:06:05;;;;;;;4.88;1.10;;;;;;;13.74;72.26;100314.53;9944354;29;20130;-84
2023/09/10 05:11:06;;;;;;;4.90;1.10;;;;;;;13.68;71.98;100300.09;9943794;29;20054;-83
2023/09/10 05:16:06;;;;;;;6.95;1.20;;;;;;;13.50;71.81;100303.19;9957712;29;20042;-85
2023/09/10 05:21:07;;;;;;;1.73;0.90;;;;;;;13.98;71.38;100354.22;9944470;29;20499;-77
2023/09/10 05:26:08;;;;;;;4.65;1.20;;;;;;;13.93;72.12;100351.28;9934968;29;20065;-84
2023/09/10 05:31:09;;;;;;;20.55;1.80;;;;;;;13.57;72.13;100316.59;9929503;29;20100;-80
2023/09/10 05:36:10;;;;;;;7.40;1.38;;;;;;;13.40;71.30;100284.81;9942871;29;20085;-75
2023/09/10 05:41:10;;;;;;;2.60;1.13;;;;;;;13.69;71.98;100337.25;9944564;29;20097;-75
2023/09/10 05:51:21;;;;;;;2.33;1.08;;;;;;;14.25;70.03;100311.72;11066738;23;20130;-76
2023/09/10 05:56:24;;;;;;;3.95;1.30;;;;;;;15.16;68.60;100341.16;10018209;29;20543;-75
2023/09/10 06:06:30;;;;;;;4.30;1.60;;;;;;;14.55;67.94;100301.72;10029590;23;20089;-76
2023/09/10 06:11:31;;;;;;;5.97;1.20;;;;;;;14.93;67.46;100347.63;10055839;29;20054;-75
2023/09/10 06:16:32;;;;;;;3.10;1.35;;;;;;;15.18;66.63;100334.59;10052549;29;20057;-83
2023/09/10 06:21:33;;;;;;;1.70;1.00;;;;;;;15.67;65.72;100346.13;10056592;29;20051;-78
2023/09/10 06:26:34;;;;;;;12.85;1.40;;;;;;;15.27;65.61;100322.69;10059053;29;20070;-78
2023/09/10 06:31:35;;;;;;;5.40;1.40;;;;;;;15.25;64.69;100297.16;10062668;29;20084;-76
2023/09/10 06:36:36;;;;;;;7.20;1.48;;;;;;;15.06;64.82;100315.59;10062668;29;20077;-76
2023/09/10 06:41:36;;;;;;;4.43;1.63;;;;;;;14.93;64.30;100256.69;10062800;29;20106;-78
2023/09/10 06:46:37;;;;;;;4.45;1.13;;;;;;;15.70;64.52;100343.06;10062150;29;20410;-74
2023/09/10 06:51:38;;;;;;;17.25;1.83;;;;;;;15.42;63.37;100327.91;10061807;29;20052;-78
2023/09/10 06:56:39;;;;;;;5.65;1.33;;;;;;;15.47;63.30;100327.31;10061531;29;20049;-75
2023/09/10 07:01:40;;;;;;;5.72;1.20;;;;;;;15.48;62.65;100305.69;10061425;29;20116;-77
2023/09/10 07:06:41;;;;;;;2.08;1.10;;;;;;;15.55;62.28;100316.41;10060332;29;20069;-76
2023/09/10 07:11:41;;;;;;;4.18;0.98;;;;;;;15.38;62.37;100321.31;10061189;29;20072;-78
2023/09/10 07:16:42;;;;;;;6.03;1.38;;;;;;;15.61;62.70;100368.34;10060871;29;20053;-77
2023/09/10 07:21:43;;;;;;;2.58;1.10;;;;;;;15.40;62.52;100291.66;10061298;29;20528;-80
2023/09/10 07:26:45;;;;;;;1.63;0.77;;;;;;;15.58;61.54;100331.25;10074913;29;20512;-77
2023/09/10 07:31:45;;;;;;;5.30;1.30;;;;;;;14.97;61.60;100241.88;10060571;29;20048;-76
2023/09/10 07:36:46;;;;;;;1.65;0.90;;;;;;;15.49;61.33;100331.44;10058910;29;20525;-82
2023/09/10 07:41:47;;;;;;;2.33;0.90;;;;;;;15.16;61.00;100276.94;10058795;29;20053;-78
2023/09/10 07:46:48;;;;;;;2.88;0.93;;;;;;;15.79;60.64;100352.56;10072557;29;20486;-78
2023/09/10 07:51:48;;;;;;;3.20;1.08;;;;;;;15.89;59.73;100342.31;10060225;29;20073;-79
2023/09/10 07:56:49;;;;;;;5.47;1.05;;;;;;;16.15;59.61;100372.84;10058776;29;20045;-77
2023/09/10 08:01:50;;;;;;;7.85;1.15;;;;;;;16.16;59.50;100369.16;10060127;29;20065;-78
2023/09/10 08:06:51;;;;;;;2.10;0.93;;;;;;;16.11;59.48;100367.06;10059592;29;20065;-77
2023/09/10 08:11:52;;;;;;;4.13;1.00;;;;;;;15.97;59.65;100376.94;10059127;29;20132;-78
2023/09/10 08:16:52;;;;;;;10.25;1.40;;;;;;;15.62;59.89;100337.88;10055805;29;20060;-77
2023/09/10 08:21:53;;;;;;;31.42;2.17;;;;;;;15.42;60.37;100357.34;10057900;29;20046;-84
2023/09/10 08:26:54;;;;;;;5.57;1.08;;;;;;;15.52;60.32;100389.09;10061417;29;20136;-90
2023/09/10 08:31:57;;;;;;;2.35;1.10;;;;;;;15.31;60.09;100371.28;10055532;29;20191;-76
2023/09/10 08:36:58;;;;;;;2.75;1.23;;;;;;;15.29;59.84;100358.13;10045022;29;20109;-77
2023/09/10 08:42:16;;;;;;;1.90;0.90;;;;;;;15.57;59.70;100399.22;10037991;29;20494;-77
2023/09/10 08:47:19;;;;;;;14.18;1.77;;;;;;;15.53;59.80;100386.25;10044332;29;20041;-92
2023/09/10 08:52:20;;;;;;;8.20;1.30;;;;;;;15.75;59.35;100394.19;10045866;29;20132;-76
2023/09/10 08:57:23;;;;;;;2.20;0.90;;;;;;;15.89;58.33;100387.84;10054709;29;20053;-79
2023/09/10 09:02:23;;;;;;;15.52;1.48;;;;;;;15.78;58.23;100345.56;10050474;29;20045;-79
2023/09/10 09:07:31;;;;;;;3.75;1.10;;;;;;;16.13;57.31;100391.00;10043323;29;20057;-81
2023/09/10 09:12:35;;;;;;;8.60;1.10;;;;;;;16.28;57.18;100378.25;10044262;29;20121;-77
2023/09/10 09:17:43;;;;;;;7.70;1.10;;;;;;;16.74;55.44;100381.97;10055120;29;20057;-77
2023/09/10 09:22:50;;;;;;;4.70;0.90;;;;;;;16.84;54.92;100390.44;10042003;29;20109;-79
2023/09/10 09:27:53;;;;;;;3.33;0.88;;;;;;;17.14;54.84;100393.50;10040621;29;20057;-79
2023/09/10 09:32:56;;;;;;;10.80;1.58;;;;;;;17.03;53.14;100311.75;10056500;29;20112;-81
2023/09/10 09:38:36;;;;;;;4.22;0.80;;;;;;;17.58;51.87;100378.47;10055338;29;20528;-78
2023/09/10 09:43:37;;;;;;;3.08;1.10;;;;;;;17.22;52.47;100334.19;10057696;29;20524;-81
2023/09/10 09:48:38;;;;;;;1.33;0.68;;;;;;;17.70;51.73;100382.13;10070893;29;20125;-79
2023/09/10 09:53:40;;;;;;;1.88;0.90;;;;;;;17.61;50.76;100345.00;10056564;29;20038;-81
2023/09/10 09:58:44;;;;;;;6.63;1.13;;;;;;;17.53;51.22;100354.16;10057142;29;20079;-76
2023/09/10 10:03:45;;;;;;;3.88;0.95;;;;;;;17.57;51.49;100377.66;10063387;29;20048;-74
2023/09/10 10:08:50;;;;;;;11.20;1.50;;;;;;;17.58;51.01;100379.28;10064150;29;20057;-75
2023/09/10 10:13:51;;;;;;;4.55;0.90;;;;;;;17.55;50.91;100357.41;10063910;29;20137;-81
2023/09/10 10:18:53;;;;;;;2.13;1.05;;;;;;;17.59;50.75;100385.53;10062793;29;20128;-79
2023/09/10 10:23:56;;;;;;;12.85;1.52;;;;;;;17.74;51.69;100369.94;10062740;29;20046;-76
2023/09/10 10:28:58;;;;;;;2.95;1.10;;;;;;;17.99;50.82;100380.78;10057922;29;20093;-76
2023/09/10 10:34:06;;;;;;;17.80;1.50;;;;;;;18.08;50.75;100367.09;10043634;29;20482;-77
2023/09/10 10:39:15;;;;;;;1.98;1.00;;;;;;;18.19;49.40;100379.84;10049090;29;20049;-78
2023/09/10 10:44:21;;;;;;;2.60;0.88;;;;;;;18.24;48.73;100366.56;10041852;29;20087;-79
2023/09/10 10:49:23;;;;;;;10.00;1.08;;;;;;;18.47;48.90;100345.28;10051456;29;20141;-77
2023/09/10 10:54:24;;;;;;;1.67;0.88;;;;;;;18.61;47.86;100334.44;10048138;29;20041;-77
2023/09/10 10:59:25;;;;;;;4.13;1.02;;;;;;;18.82;47.39;100349.38;10046573;29;20474;-80
2023/09/10 11:04:28;;;;;;;3.28;0.90;;;;;;;18.63;47.15;100337.69;10053019;29;20084;-77
2023/09/10 11:09:36;;;;;;;5.68;0.80;;;;;;;18.64;46.55;100358.19;10052886;29;20057;-77
2023/09/10 11:15:01;;;;;;;4.32;0.90;;;;;;;18.88;46.56;100372.69;10052008;29;20049;-83
2023/09/10 11:20:06;;;;;;;5.45;0.93;;;;;;;19.54;46.24;100369.28;10052236;29;20061;-77
2023/09/10 11:25:07;;;;;;;10.95;1.83;;;;;;;19.89;45.03;100363.22;10052056;29;20044;-78
2023/09/10 11:30:08;;;;;;;3.63;0.90;;;;;;;20.12;43.94;100369.78;10053607;29;20045;-77
2023/09/10 11:35:20;;;;;;;1.90;0.80;;;;;;;20.31;42.52;100360.53;10054183;29;20124;-81
2023/09/10 11:40:22;;;;;;;9.80;0.95;;;;;;;20.28;43.29;100350.22;10050064;29;20608;-79
2023/09/10 11:45:23;;;;;;;32.22;2.10;;;;;;;20.58;42.71;100357.44;10046407;29;20053;-76
2023/09/10 11:50:24;;;;;;;16.10;1.20;;;;;;;20.60;42.74;100369.66;10045446;29;20042;-77
2023/09/10 11:55:25;;;;;;;3.35;1.08;;;;;;;20.00;42.63;100300.44;10046086;29;20120;-76
2023/09/10 12:00:26;;;;;;;8.52;2.08;;;;;;;20.58;42.89;100368.22;10048668;29;20040;-79
2023/09/10 12:05:27;;;;;;;6.68;1.50;;;;;;;20.51;42.53;100336.75;10048698;29;20144;-75
2023/09/10 12:10:29;;;;;;;6.25;1.95;;;;;;;20.26;43.46;100382.81;10046938;29;20106;-77
2023/09/10 12:15:31;;;;;;;4.68;1.25;;;;;;;20.09;43.91;100375.63;10045155;29;20045;-77
2023/09/10 12:20:34;;;;;;;6.57;1.38;;;;;;;20.28;44.52;100358.31;10049203;29;20073;-75
2023/09/10 12:25:35;;;;;;;9.52;1.65;;;;;;;19.80;44.06;100308.84;10044721;29;20041;-76
2023/09/10 12:30:36;;;;;;;3.97;1.10;;;;;;;20.09;44.29;100362.13;10048888;29;20077;-76
2023/09/10 12:35:37;;;;;;;6.03;1.40;;;;;;;20.11;44.67;100360.84;10041964;29;20167;-76
2023/09/10 12:40:38;;;;;;;34.67;2.47;;;;;;;20.04;44.67;100369.06;10046422;29;20500;-77
2023/09/10 12:45:39;;;;;;;9.52;1.38;;;;;;;19.54;45.27;100323.47;10047931;29;20064;-76
2023/09/10 12:50:40;;;;;;;6.70;1.40;;;;;;;19.76;45.94;100385.00;10044493;29;20528;-75
2023/09/10 12:55:41;;;;;;;2.15;1.17;;;;;;;19.81;46.21;100385.13;10044145;29;20103;-75
2023/09/10 13:00:42;;;;;;;4.30;1.63;;;;;;;19.63;46.82;100368.97;10044616;29;20046;-75
2023/09/10 13:05:43;;;;;;;2.03;1.08;;;;;;;19.53;46.41;100381.13;10048620;29;20033;-75
2023/09/10 13:10:44;;;;;;;17.05;2.00;;;;;;;19.39;47.44;100401.97;10050162;29;20053;-75
2023/09/10 13:15:44;;;;;;;5.47;1.25;;;;;;;19.25;47.33;100386.19;10045711;29;20044;-74
2023/09/10 13:20:45;;;;;;;2.78;1.10;;;;;;;19.16;47.29;100383.78;10044801;29;20037;-75
2023/09/10 13:25:46;;;;;;;5.05;1.45;;;;;;;19.04;47.71;100393.66;10037964;29;20045;-74
2023/09/10 13:30:47;;;;;;;4.78;1.05;;;;;;;19.00;48.05;100383.56;10046710;29;20042;-75
2023/09/10 13:35:48;;;;;;;3.83;1.08;;;;;;;18.87;48.18;100376.41;10040701;29;20056;-75
2023/09/10 13:40:53;;;;;;;5.25;1.10;;;;;;;18.93;48.60;100399.75;10049149;29;20053;-74
2023/09/10 13:45:54;;;;;;;7.50;1.50;;;;;;;18.87;48.83;100408.72;10046999;29;20132;-75
2023/09/10 13:50:55;;;;;;;5.72;1.27;;;;;;;18.75;48.29;100399.72;10046607;29;20037;-75
2023/09/10 13:55:55;;;;;;;4.82;1.00;;;;;;;18.60;48.91;100391.94;10046536;29;20106;-70
2023/09/10 14:00:56;;;;;;;13.18;1.73;;;;;;;18.59;49.50;100401.06;10053284;29;20132;-74
2023/09/10 14:05:57;;;;;;;6.03;1.27;;;;;;;18.34;49.87;100391.13;10055746;29;20470;-75
2023/09/10 14:10:58;;;;;;;12.68;1.65;;;;;;;17.97;50.31;100357.84;10057003;29;20045;-75
2023/09/10 14:15:59;;;;;;;13.65;1.40;;;;;;;18.18;50.97;100408.59;10055428;29;20387;-75
2023/09/10 14:21:00;;;;;;;4.53;1.20;;;;;;;17.90;50.95;100397.38;10056170;29;20049;-75
2023/09/10 14:26:01;;;;;;;8.75;1.48;;;;;;;17.78;51.26;100403.44;10055472;29;20072;-76
2023/09/10 14:31:02;;;;;;;11.38;1.48;;;;;;;17.78;51.70;100433.00;10055086;29;20094;-76
2023/09/10 14:36:04;;;;;;;21.35;1.70;;;;;;;17.60;52.59;100429.31;10055634;29;20045;-76
2023/09/10 14:41:04;;;;;;;2.75;0.93;;;;;;;17.47;52.84;100435.53;10055131;29;20391;-76
2023/09/10 14:46:05;;;;;;;8.88;1.30;;;;;;;16.93;53.40;100381.16;10057331;29;20050;-76
2023/09/10 14:51:06;;;;;;;5.82;1.10;;;;;;;17.14;53.94;100441.81;10062398;29;20037;-75
2023/09/10 14:56:06;;;;;;;14.93;2.10;;;;;;;16.72;54.37;100390.22;10062497;29;20042;-76
2023/09/10 15:01:07;;;;;;;6.20;1.25;;;;;;;16.76;55.23;100412.13;10061036;29;20140;-76
2023/09/10 15:06:08;;;;;;;7.40;1.00;;;;;;;16.72;56.32;100441.19;10061885;29;20494;-76
2023/09/10 15:11:09;;;;;;;15.30;1.90;;;;;;;16.62;57.68;100464.91;10061496;29;20088;-78
2023/09/10 15:16:10;;;;;;;4.70;1.23;;;;;;;16.08;59.44;100405.00;10061153;29;20045;-75
2023/09/10 15:21:11;;;;;;;6.47;2.00;;;;;;;16.26;60.70;100465.25;10061025;29;20049;-76
2023/09/10 15:26:11;;;;;;;6.75;2.40;;;;;;;16.04;61.99;100456.53;10061347;29;20069;-76
2023/09/10 15:31:13;;;;;;;41.65;4.72;;;;;;;16.00;62.64;100460.63;10061233;29;20037;-76
2023/09/10 15:36:14;;;;;;;7.60;2.38;;;;;;;15.70;63.11;100423.41;10060663;29;20106;-76
2023/09/10 15:41:15;;;;;;;2.95;1.90;;;;;;;15.70;63.01;100459.06;10060767;29;20094;-76
2023/09/10 15:46:16;;;;;;;3.78;1.95;;;;;;;15.74;63.18;100475.56;10061832;29;20041;-75
2023/09/10 15:51:16;;;;;;;18.30;2.33;;;;;;;15.63;63.76;100470.72;10060416;29;20042;-76
2023/09/10 15:56:18;;;;;;;9.50;2.20;;;;;;;15.44;64.06;100461.56;10059436;29;20096;-76
2023/09/10 16:01:19;;;;;;;5.50;1.92;;;;;;;15.24;64.10;100451.56;10059534;29;20072;-76
2023/09/10 16:06:19;;;;;;;2.85;1.77;;;;;;;15.46;64.21;100496.97;10055475;29;20103;-72
2023/09/10 16:11:20;;;;;;;10.23;2.08;;;;;;;15.20;64.86;100458.31;10041665;29;20506;-76
2023/09/10 16:16:21;;;;;;;5.43;1.70;;;;;;;15.32;65.11;100485.38;10034044;29;20062;-75
2023/09/10 16:21:22;;;;;;;6.15;2.20;;;;;;;15.24;65.37;100489.03;10058726;29;20135;-76
2023/09/10 16:26:22;;;;;;;6.63;1.95;;;;;;;14.86;65.45;100448.38;10058415;29;20057;-75
2023/09/10 16:31:23;;;;;;;4.88;1.67;;;;;;;15.16;65.73;100517.78;10057414;29;20041;-78
2023/09/10 16:36:24;;;;;;;4.32;1.90;;;;;;;14.61;65.90;100454.16;10058679;29;20056;-77
2023/09/10 16:41:25;;;;;;;7.07;1.75;;;;;;;14.61;66.07;100461.34;10058735;29;20110;-76
2023/09/10 16:46:26;;;;;;;3.17;1.60;;;;;;;14.94;66.48;100535.69;10057531;29;20494;-74
2023/09/10 16:51:27;;;;;;;6.38;2.00;;;;;;;14.79;67.40;100541.94;10057665;29;20109;-76
2023/09/10 16:56:27;;;;;;;3.90;1.60;;;;;;;14.22;68.52;100483.13;10057181;29;20045;-76
2023/09/10 17:01:29;;;;;;;4.22;1.75;;;;;;;14.22;69.16;100515.19;10071910;29;20041;-77
2023/09/10 17:06:30;;;;;;;5.95;1.95;;;;;;;13.96;69.56;100487.09;10057903;29;20104;-76
2023/09/10 17:11:30;;;;;;;9.55;2.30;;;;;;;14.11;70.02;100521.81;10056676;29;20072;-77
2023/09/10 17:16:31;;;;;;;6.47;2.20;;;;;;;14.18;69.75;100529.91;10057612;29;20101;-77
2023/09/10 17:21:32;;;;;;;6.90;2.30;;;;;;;13.83;70.00;100468.25;10056728;29;20109;-77
2023/09/10 17:26:33;;;;;;;4.78;3.50;;;;;;;14.19;69.64;100526.25;10056832;29;20116;-77
2023/09/10 17:31:34;;;;;;;6.75;2.90;;;;;;;14.25;68.90;100522.81;10056477;29;20045;-76
2023/09/10 17:36:36;;;;;;;5.30;2.20;;;;;;;14.26;68.45;100517.25;10056310;29;20110;-77
2023/09/10 17:41:37;;;;;;;5.97;1.70;;;;;;;14.35;68.07;100528.69;10049019;29;20493;-77
2023/09/10 17:46:38;;;;;;;4.57;2.17;;;;;;;14.32;68.37;100529.06;10046798;29;20042;-76
2023/09/10 17:51:39;;;;;;;4.43;2.03;;;;;;;14.20;68.70;100528.72;10049940;29;20050;-77
2023/09/10 17:56:39;;;;;;;29.08;3.65;;;;;;;13.95;69.63;100524.69;10022665;29;20125;-77
2023/09/10 18:01:40;;;;;;;12.05;2.95;;;;;;;13.90;70.53;100533.25;10016537;29;20525;-77
2023/09/10 18:06:41;;;;;;;13.75;3.22;;;;;;;13.78;70.48;100529.41;10017940;29;20093;-78
2023/09/10 18:11:42;;;;;;;21.85;4.05;;;;;;;13.14;70.67;100437.31;10017819;29;20050;-77
2023/09/10 18:16:43;;;;;;;41.95;4.28;;;;;;;13.67;71.03;100533.34;10018178;29;20066;-77
2023/09/10 18:21:43;;;;;;;8.98;2.92;;;;;;;13.84;70.90;100552.69;10022309;29;20529;-77
2023/09/10 18:26:44;;;;;;;8.88;2.40;;;;;;;13.48;70.78;100476.00;10040712;29;20041;-77
2023/09/10 18:31:45;;;;;;;5.70;2.15;;;;;;;14.08;70.44;100541.72;10062656;29;20502;-78
2023/09/10 18:36:46;;;;;;;7.70;2.05;;;;;;;14.31;70.09;100551.47;10063234;29;20056;-77
2023/09/10 18:41:47;;;;;;;9.23;2.05;;;;;;;14.33;69.28;100547.59;10062807;29;20048;-77
2023/09/10 18:46:54;;;;;;;8.48;1.90;;;;;;;14.40;70.48;100555.69;10062831;29;20046;-77
2023/09/10 18:52:17;;;;;;;4.22;1.88;;;;;;;14.28;69.26;100533.94;10062713;29;20094;-77
2023/09/10 18:57:18;;;;;;;12.32;2.22;;;;;;;14.21;68.87;100541.06;10076383;29;20046;-77
2023/09/10 19:02:19;;;;;;;8.18;2.00;;;;;;;14.07;68.67;100510.69;10077104;29;20093;-77
2023/09/10 19:07:19;;;;;;;5.65;2.15;;;;;;;14.18;68.26;100529.91;10061777;29;20049;-77
2023/09/10 19:12:20;;;;;;;3.83;1.90;;;;;;;14.27;68.20;100553.69;10062074;29;20042;-77
2023/09/10 19:17:21;;;;;;;15.20;2.13;;;;;;;14.17;68.18;100537.09;10061439;29;20183;-77
2023/09/10 19:22:22;;;;;;;5.93;2.08;;;;;;;13.88;67.70;100479.19;10060837;29;20056;-77
2023/09/10 19:27:22;;;;;;;6.22;2.25;;;;;;;13.86;67.89;100478.56;10060797;29;20101;-77
2023/09/10 19:32:23;;;;;;;4.32;1.90;;;;;;;14.20;67.65;100528.72;10060754;29;20386;-77
2023/09/10 19:37:24;;;;;;;3.95;2.00;;;;;;;14.05;67.52;100493.19;10060621;29;20097;-77
2023/09/10 19:42:28;;;;;;;3.45;1.75;;;;;;;14.29;67.83;100526.75;10060930;29;20045;-77
2023/09/10 19:47:29;;;;;;;3.55;2.20;;;;;;;14.26;67.61;100511.94;10060194;29;20498;-77
2023/09/10 19:52:29;;;;;;;6.65;2.58;;;;;;;14.24;67.57;100507.78;10060433;29;20053;-77
2023/09/10 19:57:30;;;;;;;3.38;2.08;;;;;;;13.97;67.50;100467.41;10059891;29;20053;-77
2023/09/10 20:02:31;;;;;;;5.60;2.10;;;;;;;14.25;67.52;100525.50;10060283;29;20053;-77
2023/09/10 20:07:32;;;;;;;4.03;2.10;;;;;;;14.19;67.74;100507.53;10060047;29;20088;-77
2023/09/10 20:12:32;;;;;;;2.40;1.70;;;;;;;14.24;67.47;100518.47;10059331;29;20119;-77
2023/09/10 20:17:33;;;;;;;6.25;2.33;;;;;;;14.22;67.60;100524.00;10059948;29;20173;-77
2023/09/10 20:22:34;;;;;;;3.85;2.10;;;;;;;14.31;67.65;100525.56;10059723;29;20410;-77
2023/09/10 20:27:35;;;;;;;30.95;2.40;;;;;;;14.20;67.85;100509.19;10073243;29;20619;-77
2023/09/10 20:32:36;;;;;;;5.78;1.92;;;;;;;14.08;68.07;100487.47;10058931;29;20037;-77
2023/09/10 20:37:36;;;;;;;6.25;2.20;;;;;;;14.14;68.23;100511.56;10059319;29;20052;-77
2023/09/10 20:42:37;;;;;;;11.55;2.22;;;;;;;14.14;68.84;100532.13;10058144;29;20050;-77
2023/09/10 20:47:38;;;;;;;7.50;2.10;;;;;;;13.95;69.24;100492.66;10058481;29;20065;-77
2023/09/10 20:52:39;;;;;;;4.03;2.10;;;;;;;13.97;69.78;100509.31;10056609;29;20093;-78
2023/09/10 20:57:39;;;;;;;17.75;2.70;;;;;;;13.97;70.18;100511.97;10057950;29;20509;-77
2023/09/10 21:02:40;;;;;;;6.22;2.13;;;;;;;13.73;70.20;100467.72;10057638;29;20074;-77
2023/09/10 21:07:41;;;;;;;26.88;3.08;;;;;;;14.12;70.37;100515.47;10056487;29;20088;-78
2023/09/10 21:12:42;;;;;;;7.88;2.67;;;;;;;13.79;70.50;100467.81;10057173;29;20076;-77
2023/09/10 21:17:42;;;;;;;7.25;2.97;;;;;;;13.87;70.30;100477.53;10057556;29;20045;-77
2023/09/10 21:22:43;;;;;;;12.70;2.63;;;;;;;14.15;70.38;100513.25;10057448;29;20116;-77
2023/09/10 21:27:44;;;;;;;8.63;2.60;;;;;;;14.20;70.15;100501.16;10057817;29;20041;-77
2023/09/10 21:32:45;;;;;;;4.13;2.40;;;;;;;14.21;70.09;100500.13;10057149;29;20041;-77
2023/09/10 21:37:45;;;;;;;6.35;2.30;;;;;;;13.65;69.66;100396.56;10057103;29;20065;-78
2023/09/10 21:42:46;;;;;;;7.75;2.80;;;;;;;13.86;69.76;100428.66;10056406;29;20490;-77
2023/09/10 21:47:47;;;;;;;4.75;2.45;;;;;;;14.19;69.80;100486.97;10056981;29;20037;-78
2023/09/10 21:52:47;;;;;;;4.38;2.30;;;;;;;14.23;70.08;100500.78;10056758;29;20085;-77
2023/09/10 21:57:48;;;;;;;7.53;2.40;;;;;;;13.87;70.53;100453.50;10063030;29;20140;-77
2023/09/10 22:02:49;;;;;;;4.75;2.47;;;;;;;14.13;70.68;100493.91;10064187;29;20038;-77
2023/09/10 22:07:50;;;;;;;6.05;2.50;;;;;;;13.88;70.97;100460.50;10065299;29;20076;-77
2023/09/10 22:12:50;;;;;;;4.03;2.45;;;;;;;14.08;71.13;100495.47;10064007;29;20049;-78
2023/09/10 22:17:51;;;;;;;6.32;2.78;;;;;;;14.14;71.13;100484.88;10063352;29;20049;-77
2023/09/10 22:22:53;;;;;;;7.63;2.70;;;;;;;13.83;71.75;100436.22;10063182;29;20081;-77
2023/09/10 22:27:53;;;;;;;11.85;2.85;;;;;;;13.77;72.22;100428.97;10063521;29;20414;-77
2023/09/10 22:32:54;;;;;;;4.43;2.67;;;;;;;14.01;71.80;100479.38;10063362;29;20048;-77
2023/09/10 22:37:56;;;;;;;5.18;2.50;;;;;;;13.53;72.37;100430.91;10062627;29;20051;-77
2023/09/10 22:42:56;;;;;;;6.85;2.90;;;;;;;13.50;72.95;100427.78;10062089;29;20490;-77
2023/09/10 22:47:58;;;;;;;7.43;2.83;;;;;;;13.66;72.96;100470.28;10062986;29;20041;-77
2023/09/10 22:52:59;;;;;;;4.38;3.05;;;;;;;13.72;73.53;100484.75;10062551;29;20048;-77
2023/09/10 22:58:00;;;;;;;10.13;3.10;;;;;;;13.68;73.51;100481.63;10062469;29;20057;-77
2023/09/10 23:03:00;;;;;;;7.50;3.17;;;;;;;13.64;73.62;100475.84;10062313;29;20114;-77
2023/09/10 23:08:01;;;;;;;7.22;2.90;;;;;;;13.64;73.30;100485.66;10060982;29;20072;-77
2023/09/10 23:13:02;;;;;;;11.95;2.75;;;;;;;13.52;73.93;100469.31;10062966;29;20049;-77
2023/09/10 23:18:03;;;;;;;7.50;3.00;;;;;;;13.52;74.50;100471.97;10062277;29;20537;-77
2023/09/10 23:23:04;;;;;;;12.15;2.75;;;;;;;13.70;74.62;100479.59;10061658;29;20129;-77
2023/09/10 23:28:04;;;;;;;7.15;2.35;;;;;;;13.77;73.98;100479.69;10059886;29;20097;-77
2023/09/10 23:33:05;;;;;;;6.65;3.17;;;;;;;13.48;73.57;100412.78;10061505;29;20413;-78
2023/09/10 23:38:07;;;;;;;6.50;2.97;;;;;;;13.95;73.52;100480.13;10060418;29;20517;-77
2023/09/10 23:43:08;;;;;;;10.38;3.17;;;;;;;13.49;73.61;100408.28;10060401;29;20048;-78
2023/09/10 23:48:08;;;;;;;14.35;3.50;;;;;;;13.77;74.21;100474.34;10058862;29;20399;-77
2023/09/10 23:53:09;;;;;;;9.18;3.00;;;;;;;13.37;74.64;100431.09;10060996;29;20046;-77
2023/09/10 23:58:10;;;;;;;4.88;2.60;;;;;;;13.45;74.99;100468.38;10060214;29;20057;-77
